Time;durP1;ratioP1;P1;durP2;ratioP2;P2;SDS_P1;SDS_P2;PMS_P1;PMS_P2;Temp;Humidity;BMP_temperature;BMP_pressure;BME280_temperature;BME280_humidity;BME280_pressure;Samples;Min_cycle;Max_cycle;Signal;HPM_P1;HPM_P2
2023/06/12 00:02:31;;;;;;;6.42;0.50;;;;;;;19.43;70.27;99424.91;1802833;79;21311;-81
2023/06/12 00:05:38;;;;;;;0.40;0.40;;;;;;;19.44;70.26;99416.36;1802412;79;21363;-81
2023/06/12 00:08:44;;;;;;;2.20;0.53;;;;;;;19.65;69.48;99413.33;1802996;79;21288;-81
2023/06/12 00:11:51;;;;;;;3.12;0.78;;;;;;;19.92;68.79;99410.62;1802994;79;21295;-81
2023/06/12 00:14:59;;;;;;;1.05;0.60;;;;;;;19.72;68.97;99409.83;1802097;79;21335;-81
2023/06/12 00:18:05;;;;;;;2.77;0.50;;;;;;;19.43;69.68;99407.72;1801436;79;21370;-81
2023/06/12 00:21:12;;;;;;;2.10;0.60;;;;;;;19.43;69.55;99411.88;1802879;79;21319;-80
2023/06/12 00:24:19;;;;;;;1.07;0.30;;;;;;;19.37;69.80;99396.28;1803120;79;21271;-80
2023/06/12 00:27:25;;;;;;;0.85;0.37;;;;;;;19.65;68.69;99391.14;1802921;79;21304;-81
2023/06/12 00:30:30;;;;;;;1.77;0.45;;;;;;;19.59;68.71;99394.38;1802065;79;21366;-80
2023/06/12 00:33:38;;;;;;;1.35;0.40;;;;;;;19.55;68.85;99391.81;1872987;76;21279;-80
2023/06/12 00:36:37;;;;;;;0.90;0.42;;;;;;;19.84;67.70;99377.22;1871854;76;22580;-80
2023/06/12 00:39:36;;;;;;;3.42;0.37;;;;;;;19.82;67.60;99386.92;1870607;76;21284;-81
2023/06/12 00:42:47;;;;;;;3.12;0.33;;;;;;;19.57;68.12;99381.32;1861183;77;21276;-81
2023/06/12 00:45:53;;;;;;;0.40;0.30;;;;;;;19.74;67.67;99372.95;1860230;76;21981;-81
2023/06/12 00:49:01;;;;;;;2.00;0.62;;;;;;;19.65;67.87;99368.95;1861149;77;21300;-81
2023/06/12 00:52:12;;;;;;;0.68;0.40;;;;;;;19.64;67.74;99376.98;1859605;77;21268;-80
2023/06/12 00:55:15;;;;;;;0.90;0.40;;;;;;;19.59;67.92;99363.02;1859664;77;21328;-81
2023/06/12 00:58:20;;;;;;;2.75;0.45;;;;;;;19.52;68.20;99358.20;1861226;77;21280;-81
2023/06/12 01:01:26;;;;;;;0.68;0.40;;;;;;;19.57;68.15;99361.03;1859847;77;21929;-81
2023/06/12 01:04:26;;;;;;;0.62;0.50;;;;;;;19.60;68.01;99361.40;1861305;77;21288;-81
2023/06/12 01:07:52;;;;;;;1.37;0.40;;;;;;;19.58;68.04;99355.25;1837178;77;21358;-81
2023/06/12 01:11:08;;;;;;;3.10;0.60;;;;;;;19.54;68.09;99353.25;1861233;77;21862;-81
2023/06/12 01:14:15;;;;;;;1.27;0.30;;;;;;;19.44;68.38;99371.16;1861300;77;21276;-81
2023/06/12 01:17:20;;;;;;;0.30;0.30;;;;;;;19.39;68.62;99372.76;1859690;77;21830;-81
2023/06/12 01:20:26;;;;;;;0.65;0.37;;;;;;;19.39;68.45;99371.92;1859618;77;21284;-81
2023/06/12 01:23:43;;;;;;;0.50;0.35;;;;;;;19.33;68.62;99369.61;1861269;77;21284;-80
2023/06/12 01:27:18;;;;;;;3.10;0.40;;;;;;;19.25;69.07;99371.45;1857018;77;21335;-81
2023/06/12 01:30:56;;;;;;;2.05;0.30;;;;;;;19.32;68.79;99368.48;1838097;77;22335;-81
2023/06/12 01:34:24;;;;;;;0.20;0.20;;;;;;;19.27;69.11;99377.56;1869597;76;21335;-80
2023/06/12 01:37:37;;;;;;;1.40;0.30;;;;;;;19.26;69.15;99372.29;1872164;76;21289;-80
2023/06/12 01:40:47;;;;;;;2.98;0.60;;;;;;;19.36;68.92;99376.58;1873034;76;22556;-80
2023/06/12 01:43:52;;;;;;;0.20;0.20;;;;;;;19.47;68.77;99377.55;1872990;76;21299;-81
2023/06/12 01:46:57;;;;;;;0.33;0.23;;;;;;;19.42;68.73;99375.55;1871829;76;21323;-81
2023/06/12 01:50:04;;;;;;;0.72;0.30;;;;;;;19.57;68.25;99367.45;1835284;76;21298;-81
2023/06/12 01:53:15;;;;;;;1.32;0.60;;;;;;;19.56;68.40;99365.75;1817089;78;21288;-81
2023/06/12 01:56:17;;;;;;;0.45;0.35;;;;;;;19.49;68.82;99376.21;1820738;79;21578;-81
2023/06/12 01:59:24;;;;;;;1.47;0.37;;;;;;;19.50;68.96;99374.28;1831742;78;21268;-81
2023/06/12 02:02:24;;;;;;;0.93;0.50;;;;;;;19.35;69.53;99366.05;1830386;77;22076;-80
2023/06/12 02:05:31;;;;;;;1.22;0.40;;;;;;;19.37;69.81;99376.87;1764662;81;21843;-81
2023/06/12 02:08:38;;;;;;;0.82;0.30;;;;;;;19.32;70.03;99370.70;1765865;81;21907;-80
2023/06/12 02:11:44;;;;;;;0.98;0.37;;;;;;;19.29;70.28;99374.53;1736760;82;21299;-81
2023/06/12 02:14:50;;;;;;;1.40;0.40;;;;;;;19.31;70.42;99373.75;1736795;82;21310;-81
2023/06/12 02:17:51;;;;;;;2.67;0.50;;;;;;;19.29;70.86;99375.91;1729628;81;21331;-80
2023/06/12 02:20:49;;;;;;;1.05;0.70;;;;;;;19.45;70.40;99372.83;1731715;83;21319;-81
2023/06/12 02:23:54;;;;;;;5.87;0.80;;;;;;;19.47;70.40;99381.71;1735616;82;21299;-81
2023/06/12 02:27:00;;;;;;;3.35;1.12;;;;;;;19.48;70.44;99373.16;1735817;82;21394;-81
2023/06/12 02:30:05;;;;;;;1.77;0.88;;;;;;;19.48;70.56;99384.77;1735958;82;21312;-81
2023/06/12 02:33:14;;;;;;;0.80;0.70;;;;;;;19.63;70.27;99373.93;1734205;81;21340;-81
2023/06/12 02:36:20;;;;;;;2.27;1.20;;;;;;;19.69;69.97;99380.38;1718078;82;21324;-81
2023/06/12 02:39:28;;;;;;;3.70;1.30;;;;;;;19.69;69.85;99381.20;1741770;82;22596;-82
2023/06/12 02:42:35;;;;;;;2.95;1.25;;;;;;;19.64;70.11;99387.53;1741761;82;21910;-81
2023/06/12 02:45:40;;;;;;;8.23;1.20;;;;;;;19.63;70.25;99391.95;1741813;82;21636;-81
2023/06/12 02:48:48;;;;;;;1.32;1.12;;;;;;;19.60;70.46;99391.91;1752700;81;21322;-80
2023/06/12 02:51:54;;;;;;;4.87;1.65;;;;;;;19.68;70.30;99383.70;1772106;81;21294;-80
2023/06/12 02:54:59;;;;;;;6.83;2.22;;;;;;;19.71;70.43;99393.42;1772242;81;21287;-80
2023/06/12 02:58:06;;;;;;;7.40;1.77;;;;;;;19.64;70.79;99388.91;1771784;81;21291;-80
2023/06/12 03:01:16;;;;;;;4.12;1.65;;;;;;;19.63;70.78;99383.09;1772456;81;21342;-80
2023/06/12 03:04:27;;;;;;;2.17;1.50;;;;;;;19.62;71.03;99391.13;1772214;81;21881;-80
2023/06/12 03:07:36;;;;;;;5.08;2.55;;;;;;;19.72;71.04;99392.35;1771853;81;21315;-81
2023/06/12 03:10:41;;;;;;;5.83;2.17;;;;;;;19.64;71.41;99387.53;1772396;81;21343;-80
2023/06/12 03:13:48;;;;;;;5.78;2.42;;;;;;;19.87;70.94;99380.05;1772308;81;21310;-81
2023/06/12 03:16:54;;;;;;;3.70;2.58;;;;;;;19.97;70.59;99381.55;1772327;81;21287;-81
2023/06/12 03:20:00;;;;;;;6.33;2.60;;;;;;;20.22;69.74;99385.13;1761154;81;22762;-81
2023/06/12 03:23:06;;;;;;;5.90;2.98;;;;;;;20.10;70.10;99387.24;1759235;81;21325;-81
2023/06/12 03:26:12;;;;;;;11.15;3.42;;;;;;;20.14;70.30;99387.84;1760033;81;21337;-81
2023/06/12 03:29:17;;;;;;;4.70;3.08;;;;;;;20.15;70.46;99385.35;1784800;80;21327;-81
2023/06/12 03:32:25;;;;;;;10.20;4.33;;;;;;;20.23;70.34;99391.00;1785812;80;21288;-81
2023/06/12 03:35:31;;;;;;;7.65;4.00;;;;;;;20.24;70.41;99386.28;1787502;79;21334;-81
2023/06/12 03:38:36;;;;;;;8.98;5.47;;;;;;;20.28;70.38;99381.85;1784699;80;21858;-81
2023/06/12 03:41:45;;;;;;;14.15;5.45;;;;;;;20.16;71.13;99376.47;1791137;80;21850;-81
2023/06/12 03:44:57;;;;;;;16.90;6.85;;;;;;;20.14;71.67;99388.40;1768188;80;21620;-80
2023/06/12 03:48:03;;;;;;;9.50;6.33;;;;;;;20.41;71.00;99389.21;1776872;80;21304;-80
2023/06/12 03:51:09;;;;;;;12.18;8.38;;;;;;;20.37;71.42;99392.25;1769910;81;21333;-80
2023/06/12 03:54:17;;;;;;;17.65;7.95;;;;;;;20.33;72.02;99398.59;1766355;81;21323;-80
2023/06/12 03:57:22;;;;;;;17.32;10.63;;;;;;;20.43;71.95;99397.30;1766321;81;21353;-81
2023/06/12 04:00:22;;;;;;;17.25;10.48;;;;;;;20.45;72.03;99389.53;1765063;81;21309;-81
2023/06/12 04:03:29;;;;;;;24.40;12.63;;;;;;;20.63;71.52;99396.67;1766389;81;21852;-81
2023/06/12 04:06:40;;;;;;;20.77;12.40;;;;;;;20.76;71.18;99410.69;1766338;81;21891;-81
2023/06/12 04:09:43;;;;;;;17.37;11.45;;;;;;;20.76;71.11;99400.96;1765527;81;21313;-80
2023/06/12 04:12:49;;;;;;;21.00;10.30;;;;;;;21.00;70.10;99402.26;1766126;81;21904;-80
2023/06/12 04:15:57;;;;;;;22.00;10.58;;;;;;;21.19;69.46;99414.63;1766437;81;21309;-80
2023/06/12 04:19:03;;;;;;;19.25;10.48;;;;;;;21.24;68.86;99411.05;1764981;81;21314;-80
2023/06/12 04:22:12;;;;;;;25.37;10.65;;;;;;;21.13;69.02;99413.48;1764827;81;21325;-80
2023/06/12 04:25:18;;;;;;;20.25;9.30;;;;;;;20.91;69.65;99417.75;1766264;81;21352;-80
2023/06/12 04:28:24;;;;;;;15.03;8.83;;;;;;;20.91;69.65;99428.87;1766095;81;21353;-80
2023/06/12 04:31:35;;;;;;;14.45;8.95;;;;;;;20.96;68.82;99419.73;1766373;81;21305;-81
2023/06/12 04:34:45;;;;;;;18.95;8.30;;;;;;;21.04;68.40;99422.86;1766713;81;21305;-80
2023/06/12 04:37:52;;;;;;;9.90;6.50;;;;;;;21.08;68.11;99425.41;1765138;81;21880;-81
2023/06/12 04:40:58;;;;;;;10.93;5.70;;;;;;;21.07;68.07;99433.98;1764915;81;21314;-80
2023/06/12 04:44:04;;;;;;;10.82;5.75;;;;;;;21.07;67.87;99432.59;1766030;81;21894;-80
2023/06/12 04:47:11;;;;;;;8.08;5.85;;;;;;;21.05;67.59;99426.48;1766412;81;21301;-80
2023/06/12 04:50:18;;;;;;;8.93;5.47;;;;;;;20.73;68.91;99422.32;1764745;81;21368;-80
2023/06/12 04:53:27;;;;;;;8.85;7.03;;;;;;;20.66;69.08;99428.11;1766237;81;21300;-80
2023/06/12 04:56:32;;;;;;;7.42;6.65;;;;;;;20.60;69.23;99434.70;1766258;81;21293;-80
2023/06/12 04:59:38;;;;;;;11.12;6.95;;;;;;;20.65;68.97;99437.00;1765636;81;21956;-80
2023/06/12 05:02:44;;;;;;;10.72;7.50;;;;;;;20.57;69.23;99434.69;1766454;81;21310;-80
2023/06/12 05:05:52;;;;;;;10.63;6.80;;;;;;;20.67;68.89;99439.50;1766423;81;21927;-80
2023/06/12 05:09:05;;;;;;;14.10;7.50;;;;;;;20.66;68.83;99433.11;1766523;81;21349;-79
2023/06/12 05:12:07;;;;;;;11.45;8.05;;;;;;;20.70;69.12;99440.90;1766423;81;22600;-80
2023/06/12 05:15:15;;;;;;;15.32;8.08;;;;;;;20.74;69.19;99450.39;1765445;81;21329;-80
2023/06/12 05:18:21;;;;;;;12.25;9.20;;;;;;;20.73;69.04;99445.94;1766392;81;21641;-80
2023/06/12 05:21:27;;;;;;;12.55;8.23;;;;;;;20.81;68.87;99450.47;1765083;81;21309;-80
2023/06/12 05:24:32;;;;;;;12.85;8.40;;;;;;;20.76;69.05;99455.98;1771285;79;21962;-80
2023/06/12 05:27:38;;;;;;;24.82;9.33;;;;;;;20.88;68.53;99448.84;1753342;79;21338;-81
2023/06/12 05:30:47;;;;;;;18.75;9.70;;;;;;;20.93;68.14;99452.50;1756172;80;21328;-81
2023/06/12 05:33:53;;;;;;;19.42;8.43;;;;;;;21.00;67.96;99452.85;1757472;79;21339;-81
2023/06/12 05:36:58;;;;;;;17.20;8.88;;;;;;;20.92;68.38;99457.78;1750542;80;21850;-81
2023/06/12 05:40:08;;;;;;;16.05;8.33;;;;;;;21.05;68.02;99459.28;1762188;79;21149;-81
2023/06/12 05:43:14;;;;;;;16.32;7.25;;;;;;;21.09;67.83;99460.44;1765425;81;21841;-81
2023/06/12 05:46:15;;;;;;;8.85;6.05;;;;;;;21.09;67.64;99463.22;1769445;79;21430;-81
2023/06/12 05:49:23;;;;;;;9.10;7.17;;;;;;;20.83;68.53;99462.70;1775957;80;21337;-81
2023/06/12 05:52:29;;;;;;;9.58;6.55;;;;;;;20.89;68.43;99467.22;1783777;78;21312;-81
2023/06/12 05:55:37;;;;;;;12.58;6.87;;;;;;;20.93;68.43;99467.79;1786551;80;21280;-81
2023/06/12 05:58:45;;;;;;;8.98;6.15;;;;;;;21.00;68.37;99468.14;1796972;79;21295;-81
2023/06/12 06:01:52;;;;;;;10.13;6.87;;;;;;;20.97;68.73;99472.83;1764518;79;21350;-80
2023/06/12 06:04:57;;;;;;;9.30;5.37;;;;;;;21.19;67.80;99470.24;1769210;79;21282;-80
2023/06/12 06:08:04;;;;;;;7.80;4.87;;;;;;;21.30;67.46;99468.92;1778979;79;21295;-80
2023/06/12 06:11:11;;;;;;;8.45;5.05;;;;;;;21.31;67.40;99472.02;1768131;79;21312;-80
2023/06/12 06:14:18;;;;;;;12.98;4.72;;;;;;;21.29;67.37;99474.20;1776810;79;21271;-81
2023/06/12 06:17:24;;;;;;;8.35;5.30;;;;;;;21.30;67.37;99470.31;1762752;80;21303;-80
2023/06/12 06:20:30;;;;;;;7.55;6.10;;;;;;;21.22;67.57;99473.06;1774354;80;21347;-80
2023/06/12 06:23:38;;;;;;;9.53;6.35;;;;;;;21.10;67.98;99477.39;1764493;81;21854;-80
2023/06/12 06:26:45;;;;;;;14.53;6.42;;;;;;;21.07;67.93;99478.47;1744578;81;21586;-81
2023/06/12 06:29:51;;;;;;;12.18;6.53;;;;;;;21.16;67.35;99475.48;1745248;79;21868;-81
2023/06/12 06:32:57;;;;;;;25.45;7.37;;;;;;;21.26;66.99;99482.52;1759237;81;21314;-81
2023/06/12 06:36:03;;;;;;;9.05;6.80;;;;;;;21.09;67.52;99485.46;1793473;79;21298;-81
2023/06/12 06:39:09;;;;;;;19.10;7.60;;;;;;;21.05;67.78;99476.52;1804579;79;21325;-81
2023/06/12 06:42:14;;;;;;;17.23;8.30;;;;;;;21.00;68.01;99477.31;1795980;78;21356;-82
2023/06/12 06:45:25;;;;;;;19.85;8.90;;;;;;;21.14;67.73;99481.33;1769124;80;21340;-82
2023/06/12 06:48:38;;;;;;;12.75;7.58;;;;;;;21.09;68.07;99482.67;1754652;79;21295;-82
2023/06/12 06:51:45;;;;;;;11.83;8.43;;;;;;;21.25;67.68;99481.41;1759600;81;21969;-82
2023/06/12 06:54:52;;;;;;;21.93;10.58;;;;;;;21.17;67.92;99483.59;1794575;79;21883;-82
2023/06/12 06:57:59;;;;;;;19.52;9.95;;;;;;;21.09;68.24;99479.06;1799267;79;21924;-81
2023/06/12 07:01:05;;;;;;;15.23;8.08;;;;;;;21.08;68.16;99481.01;1775867;79;21363;-81
2023/06/12 07:04:12;;;;;;;21.40;10.25;;;;;;;20.84;68.89;99490.25;1778542;79;21892;-81
2023/06/12 07:07:10;;;;;;;23.45;11.12;;;;;;;20.86;68.24;99487.20;1770782;80;21357;-81
2023/06/12 07:10:19;;;;;;;22.30;10.50;;;;;;;20.85;68.08;99475.24;1755993;80;21942;-80
2023/06/12 07:13:23;;;;;;;23.15;12.30;;;;;;;20.78;68.60;99490.45;1752194;81;21323;-81
2023/06/12 07:16:31;;;;;;;26.35;12.13;;;;;;;20.83;68.70;99490.49;1761208;79;21339;-81
2023/06/12 07:19:37;;;;;;;19.67;11.65;;;;;;;20.90;68.60;99499.47;1771624;79;21314;-81
2023/06/12 07:22:44;;;;;;;29.23;12.53;;;;;;;21.03;68.15;99507.38;1744397;79;21307;-80
2023/06/12 07:25:49;;;;;;;19.87;10.72;;;;;;;21.05;68.07;99512.11;1764107;79;21339;-81
2023/06/12 07:28:56;;;;;;;22.45;11.08;;;;;;;21.13;67.85;99511.63;1743224;81;22540;-80
2023/06/12 07:32:01;;;;;;;23.65;10.50;;;;;;;21.03;68.24;99514.85;1756170;80;21317;-80
2023/06/12 07:35:08;;;;;;;17.20;9.88;;;;;;;21.21;67.59;99508.06;1771960;80;21883;-80
2023/06/12 07:38:13;;;;;;;29.45;10.95;;;;;;;21.17;68.08;99515.56;1804006;78;21280;-80
2023/06/12 07:41:19;;;;;;;16.30;10.00;;;;;;;21.14;68.39;99520.25;1754421;80;21319;-80
2023/06/12 07:44:25;;;;;;;30.43;11.15;;;;;;;21.19;68.73;99520.30;1761111;81;21330;-81
2023/06/12 07:47:31;;;;;;;26.90;11.12;;;;;;;21.37;68.74;99534.94;1765588;81;21275;-80
2023/06/12 07:50:39;;;;;;;32.95;11.38;;;;;;;21.75;67.70;99519.08;1746679;81;21339;-80
2023/06/12 07:53:45;;;;;;;26.15;11.03;;;;;;;21.94;66.73;99523.91;1758655;80;21298;-80
2023/06/12 07:56:54;;;;;;;41.60;13.50;;;;;;;22.10;66.47;99529.00;1734839;82;21845;-80
2023/06/12 08:00:00;;;;;;;36.48;11.65;;;;;;;22.33;65.75;99527.74;1740559;81;21315;-80
2023/06/12 08:03:10;;;;;;;17.52;9.10;;;;;;;22.34;65.80;99531.36;1759115;79;21339;-81
2023/06/12 08:06:18;;;;;;;25.85;11.60;;;;;;;22.47;65.05;99532.25;1806772;78;21977;-80
2023/06/12 08:09:24;;;;;;;20.10;9.05;;;;;;;22.50;64.78;99528.93;1827325;76;21287;-81
2023/06/12 08:12:29;;;;;;;35.70;12.43;;;;;;;22.40;65.23;99531.69;1821386;78;21322;-81
2023/06/12 11:56:56;;;;;;;16.60;8.28;;;;;;;21.64;77.79;99553.80;1782401;79;28305;-82
2023/06/12 12:00:04;;;;;;;14.95;7.80;;;;;;;21.41;78.15;99577.81;1755265;82;21299;-78
2023/06/12 12:03:13;;;;;;;13.48;7.08;;;;;;;22.01;75.62;99575.73;1783379;79;21263;-81
2023/06/12 12:06:16;;;;;;;17.25;7.95;;;;;;;22.17;73.27;99565.84;1732943;83;21298;-80
2023/06/12 12:09:28;;;;;;;22.55;8.10;;;;;;;22.27;74.29;99569.79;1734414;83;21318;-77
2023/06/12 12:12:32;;;;;;;10.82;6.80;;;;;;;22.45;72.76;99577.67;1733314;83;21282;-78
2023/06/12 12:15:41;;;;;;;12.65;7.70;;;;;;;22.25;73.48;99581.73;1731936;83;21318;-81
2023/06/12 12:18:51;;;;;;;13.95;7.05;;;;;;;22.64;71.54;99574.69;1733025;81;21267;-81
2023/06/12 12:21:56;;;;;;;11.63;6.70;;;;;;;22.54;71.23;99574.65;1732415;83;21204;-79
2023/06/12 12:25:29;;;;;;;12.70;6.78;;;;;;;22.56;70.94;99566.84;1750849;80;21289;-81
2023/06/12 12:28:34;;;;;;;15.28;7.55;;;;;;;22.59;70.39;99564.08;1672944;86;21343;-82
2023/06/12 12:31:41;;;;;;;14.53;6.50;;;;;;;22.99;69.14;99580.66;1685341;85;21339;-80
2023/06/12 12:34:46;;;;;;;11.40;6.58;;;;;;;22.85;68.34;99571.38;1647147;86;21300;-79
2023/06/12 12:37:52;;;;;;;9.68;6.60;;;;;;;23.25;67.55;99564.81;1692610;85;21314;-80
2023/06/12 12:40:51;;;;;;;15.75;6.25;;;;;;;22.90;69.00;99592.34;1674297;85;21352;-79
2023/06/12 12:43:50;;;;;;;8.90;5.90;;;;;;;22.71;70.35;99581.38;1725103;83;21286;-79
2023/06/12 12:46:56;;;;;;;11.45;5.20;;;;;;;22.70;69.99;99570.80;1723703;83;21349;-78
2023/06/12 12:50:03;;;;;;;12.65;5.70;;;;;;;22.56;70.48;99576.59;1717035;82;21314;-82
2023/06/12 12:53:11;;;;;;;13.25;5.62;;;;;;;22.57;69.75;99579.66;1707204;84;21282;-82
2023/06/12 12:56:17;;;;;;;8.33;4.72;;;;;;;22.75;69.30;99577.50;1706109;84;21310;-82
2023/06/12 12:59:24;;;;;;;12.13;4.70;;;;;;;22.85;68.69;99574.73;1708784;83;21310;-82
2023/06/12 13:02:35;;;;;;;12.68;5.00;;;;;;;23.03;69.17;99574.25;1708742;83;21324;-79
2023/06/12 13:05:42;;;;;;;12.73;4.93;;;;;;;23.25;67.66;99563.41;1723387;83;21339;-80
2023/06/12 13:08:48;;;;;;;16.45;5.10;;;;;;;23.09;67.60;99577.31;1716895;83;21870;-83
2023/06/12 13:11:55;;;;;;;9.83;4.40;;;;;;;22.86;68.05;99585.59;1694582;84;21329;-80
2023/06/12 13:14:55;;;;;;;12.13;4.53;;;;;;;22.76;68.55;99587.53;1694645;84;21325;-79
2023/06/12 13:18:00;;;;;;;7.50;4.40;;;;;;;22.70;69.02;99598.66;1695319;84;21302;-80
2023/06/12 13:21:06;;;;;;;13.48;4.15;;;;;;;22.45;69.28;99580.47;1694524;84;21372;-79
2023/06/12 13:24:14;;;;;;;9.10;4.55;;;;;;;22.22;70.10;99579.52;1695177;84;21656;-79
2023/06/12 13:27:20;;;;;;;10.20;3.77;;;;;;;22.01;71.04;99591.88;1691962;84;21346;-80
2023/06/12 13:30:25;;;;;;;7.50;4.10;;;;;;;22.24;71.23;99585.08;1693210;85;21357;-80
2023/06/12 13:33:32;;;;;;;7.12;4.03;;;;;;;22.57;70.17;99595.55;1699402;83;21283;-78
2023/06/12 13:36:38;;;;;;;7.97;4.25;;;;;;;22.29;70.75;99590.67;1721566;83;21317;-82
2023/06/12 13:39:36;;;;;;;;;;;;;;;22.25;70.85;99588.70;1725111;83;21302;-79
2023/06/12 13:42:43;;;;;;;11.83;4.30;;;;;;;22.27;70.61;99584.55;1721604;83;20309;-82
2023/06/12 13:45:48;;;;;;;10.80;4.20;;;;;;;22.60;68.79;99593.06;1721184;83;21902;-82
2023/06/12 13:48:53;;;;;;;7.17;3.47;;;;;;;22.74;68.68;99588.38;1722026;83;21316;-82
2023/06/12 13:51:58;;;;;;;9.88;4.62;;;;;;;22.76;68.23;99600.91;1721200;82;21348;-80
2023/06/12 13:55:05;;;;;;;6.47;3.95;;;;;;;22.79;68.25;99607.91;1722408;83;21838;-81
2023/06/12 13:58:14;;;;;;;8.15;3.98;;;;;;;22.40;68.01;99606.91;1721313;83;21891;-82
2023/06/12 14:01:20;;;;;;;5.53;3.50;;;;;;;22.22;68.22;99610.98;1721164;83;21344;-80
2023/06/12 14:04:27;;;;;;;5.95;3.55;;;;;;;22.49;67.43;99601.11;1721780;83;21300;-80
2023/06/12 14:07:33;;;;;;;6.97;3.37;;;;;;;22.57;67.63;99601.95;1721203;83;21894;-82
2023/06/12 14:10:39;;;;;;;10.55;3.70;;;;;;;22.65;67.81;99599.20;1722095;83;21352;-79
2023/06/12 14:13:46;;;;;;;7.17;3.08;;;;;;;21.30;72.64;99610.21;1722377;83;21878;-80
2023/06/12 14:16:51;;;;;;;6.37;3.35;;;;;;;20.89;74.53;99604.81;1722170;83;21310;-82
2023/06/12 14:19:58;;;;;;;8.33;3.25;;;;;;;20.86;74.57;99599.20;1722498;83;21302;-80
2023/06/12 14:23:07;;;;;;;7.83;3.52;;;;;;;20.90;74.74;99605.09;1721174;83;21286;-79
2023/06/12 14:26:15;;;;;;;6.37;3.50;;;;;;;20.79;75.08;99621.34;1721027;83;21317;-81
2023/06/12 14:29:25;;;;;;;5.70;3.50;;;;;;;20.61;75.73;99617.82;1710465;83;21283;-81
2023/06/12 14:32:30;;;;;;;9.90;3.65;;;;;;;20.75;75.50;99609.06;1666387;83;21349;-79
2023/06/12 14:35:34;;;;;;;15.20;4.08;;;;;;;20.82;75.44;99625.00;1661516;86;21982;-80
2023/06/12 14:38:40;;;;;;;9.33;3.25;;;;;;;20.51;76.21;99626.55;1670326;86;21316;-80
2023/06/12 14:41:46;;;;;;;8.55;3.95;;;;;;;20.60;76.49;99617.50;1717440;83;21325;-82
2023/06/12 14:44:52;;;;;;;7.22;3.58;;;;;;;20.67;76.14;99613.99;1718132;83;21279;-80
2023/06/12 14:47:58;;;;;;;5.42;3.50;;;;;;;20.62;76.74;99612.55;1718607;82;21341;-80
2023/06/12 14:51:03;;;;;;;5.30;3.25;;;;;;;20.78;74.82;99609.94;1690208;85;21914;-81
2023/06/12 14:54:09;;;;;;;7.55;3.25;;;;;;;20.96;73.32;99617.94;1718854;82;21307;-80
2023/06/12 14:57:15;;;;;;;12.03;4.15;;;;;;;20.91;73.52;99608.16;1716760;83;21331;-82
2023/06/12 15:00:20;;;;;;;5.62;3.17;;;;;;;20.95;73.81;99600.97;1716714;83;21330;-80
2023/06/12 15:03:27;;;;;;;12.07;3.27;;;;;;;20.97;73.91;99594.59;1719043;82;21262;-81
2023/06/12 15:06:34;;;;;;;6.70;3.42;;;;;;;20.57;75.04;99598.59;1717839;83;21338;-80
2023/06/12 15:09:41;;;;;;;6.42;3.50;;;;;;;20.74;74.77;99602.67;1717454;83;21307;-80
2023/06/12 15:12:48;;;;;;;12.50;3.55;;;;;;;20.78;74.54;99609.94;1716445;83;21327;-81
2023/06/12 15:15:54;;;;;;;9.40;3.83;;;;;;;20.83;74.32;99617.78;1715629;83;21362;-82
2023/06/12 15:19:00;;;;;;;6.37;3.22;;;;;;;20.53;75.65;99622.43;1716925;83;21299;-82
2023/06/12 15:22:07;;;;;;;9.15;3.25;;;;;;;20.56;75.35;99616.37;1717028;83;21374;-80
2023/06/12 15:25:12;;;;;;;12.03;3.70;;;;;;;20.80;74.50;99617.48;1716780;83;21326;-81
2023/06/12 15:28:19;;;;;;;12.70;3.67;;;;;;;20.60;75.66;99616.11;1717917;83;21346;-81
2023/06/12 15:31:24;;;;;;;8.48;3.47;;;;;;;20.85;74.79;99630.89;1718218;83;21307;-80
2023/06/12 15:34:29;;;;;;;9.93;3.37;;;;;;;20.69;75.66;99616.50;1718184;83;21291;-81
2023/06/12 15:37:37;;;;;;;5.22;3.40;;;;;;;20.78;75.33;99619.67;1718008;83;21318;-82
2023/06/12 15:40:45;;;;;;;7.17;3.62;;;;;;;20.90;74.93;99624.55;1717555;83;21319;-82
2023/06/12 15:43:51;;;;;;;4.03;3.10;;;;;;;21.13;74.08;99628.97;1717084;83;21314;-81
2023/06/12 15:46:57;;;;;;;11.08;4.55;;;;;;;20.78;75.68;99633.56;1716609;83;21323;-81
2023/06/12 15:50:03;;;;;;;10.28;3.47;;;;;;;20.86;75.40;99640.06;1717931;83;21291;-80
2023/06/12 15:53:09;;;;;;;10.03;3.33;;;;;;;20.96;75.01;99631.83;1718041;83;21299;-79
2023/06/12 15:56:15;;;;;;;10.15;4.53;;;;;;;21.16;74.39;99639.55;1717343;83;21696;-80
2023/06/12 15:59:21;;;;;;;8.95;3.40;;;;;;;20.60;75.79;99653.62;1717471;83;21880;-82
2023/06/12 16:02:30;;;;;;;9.63;3.55;;;;;;;20.90;74.99;99644.00;1718315;83;21287;-82
2023/06/12 16:05:36;;;;;;;5.50;3.25;;;;;;;21.06;74.35;99645.84;1717540;83;21925;-79
2023/06/12 16:08:42;;;;;;;9.15;3.52;;;;;;;21.01;74.49;99649.96;1717761;83;21420;-81
2023/06/12 16:11:48;;;;;;;6.00;3.42;;;;;;;20.96;74.48;99651.30;1717053;83;21339;-82
2023/06/12 16:14:55;;;;;;;10.48;3.70;;;;;;;20.88;74.92;99657.30;1717353;83;21345;-82
2023/06/12 16:18:02;;;;;;;9.83;3.40;;;;;;;21.08;74.47;99663.67;1716780;83;21852;-83
2023/06/12 16:21:09;;;;;;;12.88;3.80;;;;;;;21.02;74.43;99659.97;1717303;83;21359;-82
2023/06/12 16:24:15;;;;;;;11.80;3.42;;;;;;;21.00;74.57;99658.02;1718181;83;21871;-81
2023/06/12 16:27:22;;;;;;;7.60;3.47;;;;;;;20.86;75.25;99663.69;1718119;83;21313;-82
2023/06/12 16:30:29;;;;;;;9.85;3.55;;;;;;;21.00;74.57;99658.57;1715863;83;21330;-80
2023/06/12 16:33:36;;;;;;;9.13;3.87;;;;;;;21.11;73.95;99668.70;1718421;83;21297;-83
2023/06/12 16:36:43;;;;;;;9.58;3.00;;;;;;;21.19;73.32;99664.06;1717467;83;21872;-79
2023/06/12 16:39:49;;;;;;;9.63;3.75;;;;;;;21.47;72.40;99656.03;1716818;83;21283;-79
2023/06/12 16:42:56;;;;;;;9.05;3.45;;;;;;;21.26;72.71;99656.89;1717117;83;21865;-82
2023/06/12 16:46:03;;;;;;;12.58;3.95;;;;;;;20.59;73.35;99660.84;1717527;83;21294;-79
2023/06/12 16:49:09;;;;;;;7.22;3.55;;;;;;;20.57;75.55;99659.72;1717908;83;21346;-80
2023/06/12 16:52:16;;;;;;;7.80;3.42;;;;;;;20.57;76.05;99666.66;1719294;83;21839;-79
2023/06/12 16:55:25;;;;;;;11.50;3.70;;;;;;;20.45;76.92;99672.84;1718699;83;21327;-79
2023/06/12 16:58:38;;;;;;;8.75;3.45;;;;;;;20.48;77.01;99680.70;1755626;82;21941;-79
2023/06/12 17:01:45;;;;;;;19.55;3.50;;;;;;;19.79;79.55;99669.89;1754999;81;21284;-78
2023/06/12 17:04:50;;;;;;;12.60;3.60;;;;;;;19.71;80.63;99655.59;1756414;81;21270;-79
2023/06/12 17:07:59;;;;;;;14.15;3.60;;;;;;;19.78;80.54;99656.28;1755075;81;21261;-79
2023/06/12 17:11:09;;;;;;;11.25;3.52;;;;;;;19.76;80.22;99664.00;1735615;82;21345;-80
2023/06/12 17:14:14;;;;;;;12.30;3.75;;;;;;;19.67;80.65;99669.16;1730912;83;21279;-79
2023/06/12 17:17:20;;;;;;;7.85;3.83;;;;;;;19.74;80.09;99668.97;1731012;83;21329;-82
2023/06/12 17:20:26;;;;;;;11.38;3.72;;;;;;;19.60;80.50;99669.30;1730233;83;21883;-82
2023/06/12 17:23:33;;;;;;;10.72;3.55;;;;;;;19.74;79.76;99676.75;1730990;83;21302;-79
2023/06/12 17:26:39;;;;;;;6.08;3.62;;;;;;;19.79;79.28;99673.22;1740835;82;21351;-82
2023/06/12 17:29:45;;;;;;;12.05;4.37;;;;;;;19.70;79.27;99669.17;1745858;82;21863;-79
2023/06/12 17:32:52;;;;;;;3.77;2.83;;;;;;;19.79;78.89;99678.77;1746216;82;21315;-79
2023/06/12 17:35:58;;;;;;;5.85;3.20;;;;;;;19.56;80.01;99675.56;1745743;82;21323;-80
2023/06/12 17:39:05;;;;;;;9.18;3.12;;;;;;;19.79;79.40;99681.55;1746203;82;21336;-81
2023/06/12 17:42:11;;;;;;;16.48;3.50;;;;;;;19.59;79.56;99686.17;1744607;82;21318;-81
2023/06/12 17:45:16;;;;;;;9.83;3.58;;;;;;;19.87;78.29;99693.07;1744956;82;21312;-82
2023/06/12 17:48:25;;;;;;;6.97;3.35;;;;;;;19.67;78.91;99692.73;1746306;82;21836;-79
2023/06/12 17:51:30;;;;;;;6.80;3.20;;;;;;;19.63;78.72;99696.55;1745173;82;21296;-80
2023/06/12 17:54:36;;;;;;;12.33;3.60;;;;;;;19.51;79.55;99702.66;1746098;82;21296;-80
2023/06/12 17:57:41;;;;;;;8.50;3.12;;;;;;;19.59;78.87;99691.17;1744546;82;21336;-79
2023/06/12 18:00:48;;;;;;;10.03;3.55;;;;;;;19.56;79.06;99701.37;1743078;82;21344;-80
2023/06/12 18:03:54;;;;;;;10.78;3.62;;;;;;;19.57;79.08;99698.91;1744057;82;21285;-82
2023/06/12 18:07:01;;;;;;;6.80;3.40;;;;;;;19.55;79.01;99694.69;1742588;82;21324;-82
2023/06/12 18:10:07;;;;;;;9.25;3.35;;;;;;;19.55;79.18;99694.14;1743858;82;21864;-82
2023/06/12 18:13:13;;;;;;;10.65;3.77;;;;;;;19.62;78.66;99692.09;1742684;82;21320;-80
2023/06/12 18:16:19;;;;;;;6.67;3.87;;;;;;;19.47;79.25;99704.80;1743158;82;21312;-82